Time;durP1;ratioP1;P1;durP2;ratioP2;P2;SDS_P1;SDS_P2;PMS_P1;PMS_P2;Temp;Humidity;BMP_temperature;BMP_pressure;BME280_temperature;BME280_humidity;BME280_pressure;Samples;Min_cycle;Max_cycle;Signal;HPM_P1;HPM_P2
2021/06/07 00:00:26;;;;;;;8.20;3.67;;;;;;;15.63;93.79;101272.73;1766941;81;20887;-72
2021/06/07 00:02:53;;;;;;;7.67;3.87;;;;;;;15.63;93.72;101277.96;1766790;81;20891;-73
2021/06/07 00:05:20;;;;;;;7.92;4.45;;;;;;;15.60;93.54;101277.70;1766958;81;21018;-76
2021/06/07 00:07:49;;;;;;;7.20;4.08;;;;;;;15.59;93.34;101282.59;1766933;81;20903;-78
2021/06/07 00:10:17;;;;;;;6.17;3.95;;;;;;;15.61;93.05;101271.52;1767427;81;21778;-78
2021/06/07 00:12:46;;;;;;;4.53;3.90;;;;;;;15.61;92.83;101270.69;1767020;81;20951;-76
2021/06/07 00:15:15;;;;;;;7.28;4.30;;;;;;;15.59;92.75;101269.52;1767057;81;20989;-73
2021/06/07 00:17:42;;;;;;;8.35;4.70;;;;;;;15.55;92.78;101265.93;1766437;81;20899;-74
2021/06/07 00:20:12;;;;;;;6.53;3.75;;;;;;;15.51;92.85;101263.22;1767363;81;20891;-75
2021/06/07 00:22:41;;;;;;;6.42;3.85;;;;;;;15.46;93.08;101262.22;1768452;81;20923;-75
2021/06/07 00:25:10;;;;;;;5.15;3.58;;;;;;;15.43;93.06;101255.08;1767738;81;21037;-73
2021/06/07 00:27:37;;;;;;;6.65;3.70;;;;;;;15.44;92.87;101258.06;1766985;81;20899;-77
2021/06/07 00:30:06;;;;;;;7.70;3.90;;;;;;;15.45;92.57;101258.40;1765738;81;20949;-80
2021/06/07 00:32:34;;;;;;;6.15;3.30;;;;;;;15.47;92.00;101252.59;1763472;81;20911;-73
2021/06/07 00:35:01;;;;;;;9.10;4.20;;;;;;;15.49;91.64;101254.64;1763445;81;21972;-74
2021/06/07 00:37:29;;;;;;;5.62;4.10;;;;;;;15.48;91.46;101257.72;1763735;81;21009;-74
2021/06/07 00:39:56;;;;;;;6.65;3.87;;;;;;;15.47;91.44;101259.97;1763355;81;20891;-75
2021/06/07 00:42:23;;;;;;;8.40;3.67;;;;;;;15.45;91.48;101259.70;1763500;81;21018;-75
2021/06/07 00:44:50;;;;;;;11.35;3.60;;;;;;;15.42;91.60;101263.86;1763468;81;21037;-74
2021/06/07 00:47:17;;;;;;;9.18;4.08;;;;;;;15.38;91.76;101254.11;1763809;81;21140;-75
2021/06/07 00:49:44;;;;;;;5.35;3.30;;;;;;;15.37;91.93;101255.08;1763892;81;20928;-74
2021/06/07 00:52:11;;;;;;;8.95;3.60;;;;;;;15.36;92.19;101250.32;1763881;81;21058;-77
2021/06/07 00:54:39;;;;;;;6.05;3.62;;;;;;;15.35;92.33;101253.03;1763705;81;21014;-75
2021/06/07 00:57:07;;;;;;;5.92;3.42;;;;;;;15.35;92.63;101251.73;1764108;81;21074;-75
2021/06/07 00:59:35;;;;;;;8.85;4.12;;;;;;;15.34;92.60;101255.31;1764444;81;21169;-77
2021/06/07 01:02:02;;;;;;;8.70;4.17;;;;;;;15.31;92.59;101249.85;1764023;81;21020;-71
2021/06/07 01:04:29;;;;;;;5.47;3.67;;;;;;;15.33;92.56;101249.72;1763920;81;20983;-73
2021/06/07 01:06:56;;;;;;;9.20;3.98;;;;;;;15.34;92.49;101251.39;1764701;81;21497;-73
2021/06/07 01:09:24;;;;;;;8.08;3.83;;;;;;;15.34;92.44;101248.78;1763966;81;21560;-72
2021/06/07 01:11:51;;;;;;;6.25;3.58;;;;;;;15.34;92.38;101244.86;1763340;81;21168;-70
2021/06/07 01:14:18;;;;;;;7.37;4.00;;;;;;;15.33;92.30;101247.94;1763349;81;21026;-72
2021/06/07 01:16:45;;;;;;;6.03;3.75;;;;;;;15.34;92.15;101248.78;1763898;81;20915;-72
2021/06/07 01:19:12;;;;;;;6.47;4.80;;;;;;;15.35;91.89;101254.34;1763616;81;21100;-73
2021/06/07 01:21:39;;;;;;;5.87;5.22;;;;;;;15.35;91.69;101255.66;1763239;81;21580;-72
2021/06/07 01:24:07;;;;;;;7.72;4.12;;;;;;;15.33;91.52;101263.63;1763411;81;21124;-73
2021/06/07 01:26:34;;;;;;;6.45;4.55;;;;;;;15.31;91.42;101265.55;1763333;81;20895;-72
2021/06/07 01:29:02;;;;;;;6.75;4.12;;;;;;;15.28;91.31;101265.75;1763298;81;20994;-70
2021/06/07 01:31:30;;;;;;;6.28;4.62;;;;;;;15.23;91.11;101261.35;1765975;81;21024;-73
2021/06/07 01:33:57;;;;;;;6.28;4.00;;;;;;;15.19;90.98;101266.45;1766980;81;21087;-72
2021/06/07 01:36:26;;;;;;;7.80;3.60;;;;;;;15.16;90.93;101276.30;1766772;81;20875;-74
2021/06/07 01:38:53;;;;;;;8.38;3.52;;;;;;;15.13;90.88;101265.61;1766549;81;21052;-72
2021/06/07 01:41:21;;;;;;;5.17;3.45;;;;;;;15.11;90.86;101265.37;1766910;81;20895;-72
2021/06/07 01:43:48;;;;;;;9.88;4.05;;;;;;;15.09;90.90;101261.55;1766858;81;21568;-72
2021/06/07 01:46:15;;;;;;;11.45;4.15;;;;;;;15.08;90.88;101266.44;1766685;81;21010;-73
2021/06/07 01:48:42;;;;;;;6.58;3.52;;;;;;;15.07;90.86;101265.23;1766776;81;21554;-75
2021/06/07 01:51:09;;;;;;;9.43;3.98;;;;;;;15.06;90.88;101270.93;1766994;81;20907;-74
2021/06/07 01:53:36;;;;;;;7.30;3.58;;;;;;;15.07;90.88;101266.54;1766754;81;20955;-74
2021/06/07 01:56:06;;;;;;;7.78;3.40;;;;;;;15.07;90.77;101268.69;1766712;81;21545;-72
2021/06/07 01:58:33;;;;;;;3.95;3.45;;;;;;;15.06;90.80;101267.51;1766943;81;20923;-72
2021/06/07 02:01:13;;;;;;;6.70;4.00;;;;;;;15.04;91.02;101264.99;1766826;81;21786;-73
2021/06/07 02:03:40;;;;;;;5.17;3.55;;;;;;;15.07;91.13;101263.45;1766755;81;21599;-73
2021/06/07 02:06:09;;;;;;;7.47;3.58;;;;;;;15.08;91.19;101257.77;1766736;81;20950;-73
2021/06/07 02:08:37;;;;;;;9.55;4.00;;;;;;;15.07;91.21;101258.23;1766911;81;20995;-73
2021/06/07 02:11:28;;;;;;;8.18;3.72;;;;;;;15.09;91.31;101259.44;1766779;81;20966;-74
2021/06/07 02:14:03;;;;;;;5.65;3.58;;;;;;;15.10;91.51;101261.92;1766321;81;22232;-72
2021/06/07 02:16:34;;;;;;;8.63;3.72;;;;;;;15.10;91.61;101253.23;1766870;81;20903;-73
2021/06/07 02:19:01;;;;;;;6.80;4.10;;;;;;;15.09;91.70;101260.74;1766609;81;20927;-73
2021/06/07 02:21:29;;;;;;;6.10;3.98;;;;;;;15.07;91.83;101260.84;1766782;81;21014;-73
2021/06/07 02:23:56;;;;;;;7.42;3.83;;;;;;;15.09;92.08;101259.44;1767110;81;20998;-74
2021/06/07 02:26:23;;;;;;;4.30;3.35;;;;;;;15.11;92.73;101266.20;1766627;81;21140;-75
2021/06/07 02:29:06;;;;;;;7.70;3.92;;;;;;;15.14;93.11;101262.05;1766979;81;21501;-74
2021/06/07 02:31:34;;;;;;;7.12;3.98;;;;;;;15.17;93.11;101265.74;1766702;81;20979;-73
2021/06/07 02:34:02;;;;;;;5.92;3.80;;;;;;;15.22;93.04;101257.56;1766995;79;20939;-73
2021/06/07 02:36:30;;;;;;;6.58;3.87;;;;;;;15.24;92.84;101251.73;1766977;81;21470;-74
2021/06/07 02:38:57;;;;;;;4.95;3.40;;;;;;;15.26;92.56;101258.97;1766944;81;21133;-73
2021/06/07 02:41:25;;;;;;;5.28;3.75;;;;;;;15.30;92.27;101261.72;1766777;81;21473;-71
2021/06/07 02:43:53;;;;;;;6.42;3.40;;;;;;;15.32;91.70;101261.95;1766967;81;20910;-72
2021/06/07 02:46:20;;;;;;;6.03;3.30;;;;;;;15.35;91.31;101269.56;1766873;81;21092;-75
2021/06/07 02:48:48;;;;;;;7.25;3.70;;;;;;;15.38;91.14;101274.23;1767335;81;20997;-73
2021/06/07 02:51:15;;;;;;;4.35;3.02;;;;;;;15.38;91.02;101274.23;1767145;81;21168;-75
2021/06/07 02:53:42;;;;;;;6.85;3.33;;;;;;;15.34;90.71;101278.86;1767138;81;20840;-72
2021/06/07 02:56:10;;;;;;;5.05;3.45;;;;;;;15.30;90.69;101276.94;1767010;81;21493;-74
2021/06/07 02:58:37;;;;;;;4.00;3.35;;;;;;;15.29;90.54;101279.66;1767074;81;20856;-72
2021/06/07 03:01:07;;;;;;;7.83;3.85;;;;;;;15.25;90.54;101275.13;1767048;81;21002;-77
2021/06/07 03:03:36;;;;;;;7.50;4.15;;;;;;;15.22;90.78;101274.05;1767278;81;21171;-77
2021/06/07 03:06:03;;;;;;;4.42;3.45;;;;;;;15.18;91.13;101282.27;1767075;81;21050;-76
2021/06/07 03:08:31;;;;;;;5.70;3.35;;;;;;;15.17;91.41;101284.52;1767021;81;20939;-73
2021/06/07 03:11:04;;;;;;;6.60;3.35;;;;;;;15.17;91.45;101281.43;1766862;81;20922;-71
2021/06/07 03:13:33;;;;;;;7.45;3.40;;;;;;;15.20;91.60;101282.50;1767009;81;20887;-73
2021/06/07 03:16:00;;;;;;;5.62;4.33;;;;;;;15.22;92.69;101277.17;1767321;81;21140;-74
2021/06/07 03:18:28;;;;;;;6.83;4.30;;;;;;;15.22;93.46;101281.91;1766948;81;21581;-75
2021/06/07 03:20:56;;;;;;;5.75;4.30;;;;;;;15.22;94.54;101279.28;1767223;81;20860;-77
2021/06/07 03:23:30;;;;;;;6.15;4.75;;;;;;;15.22;95.54;101281.09;1766999;81;20993;-74
2021/06/07 03:25:57;;;;;;;6.33;4.15;;;;;;;15.20;96.26;101286.42;1767031;81;20998;-72
2021/06/07 03:28:24;;;;;;;7.35;3.98;;;;;;;15.19;96.51;101281.30;1767264;81;21485;-77
2021/06/07 03:30:52;;;;;;;8.28;4.05;;;;;;;15.19;96.07;101278.68;1766923;79;21469;-70
2021/06/07 03:33:20;;;;;;;5.83;3.60;;;;;;;15.20;95.65;101288.20;1767086;81;20943;-72
2021/06/07 03:35:48;;;;;;;5.55;3.67;;;;;;;15.19;95.02;101283.44;1766956;81;20955;-72
2021/06/07 03:38:16;;;;;;;5.65;3.72;;;;;;;15.22;94.69;101288.94;1767151;81;20895;-75
2021/06/07 03:40:48;;;;;;;7.50;3.70;;;;;;;15.26;94.20;101283.81;1766947;81;21143;-82
2021/06/07 03:43:16;;;;;;;5.45;3.60;;;;;;;15.26;93.69;101285.95;1766948;81;20887;-76
2021/06/07 03:45:43;;;;;;;6.40;3.60;;;;;;;15.29;93.47;101288.81;1767105;81;20934;-76
2021/06/07 03:48:10;;;;;;;6.75;4.22;;;;;;;15.30;93.21;101294.41;1766920;81;20946;-73
2021/06/07 03:50:38;;;;;;;10.10;3.62;;;;;;;15.31;92.80;101303.46;1766998;81;21092;-70
2021/06/07 03:53:06;;;;;;;8.65;4.15;;;;;;;15.35;92.78;101306.65;1767008;81;21549;-81
2021/06/07 03:55:33;;;;;;;9.60;3.70;;;;;;;15.38;92.57;101303.00;1767145;81;21429;-74
2021/06/07 03:58:00;;;;;;;7.95;3.98;;;;;;;15.41;92.38;101310.13;1766933;81;20895;-78
2021/06/07 04:00:30;;;;;;;4.90;3.60;;;;;;;15.42;92.25;101310.47;1767092;81;20990;-76
2021/06/07 04:02:57;;;;;;;3.35;3.05;;;;;;;15.46;92.04;101309.77;1767070;81;20991;-70
2021/06/07 04:05:24;;;;;;;6.08;4.12;;;;;;;15.49;92.14;101305.64;1767020;81;21915;-72
2021/06/07 04:07:51;;;;;;;8.35;3.67;;;;;;;15.53;92.30;101308.39;1767226;81;20971;-75
2021/06/07 04:10:21;;;;;;;9.13;4.35;;;;;;;15.60;92.30;101310.91;1767249;81;20947;-76
2021/06/07 04:12:50;;;;;;;6.33;3.77;;;;;;;15.64;92.00;101310.53;1766665;81;21526;-71
2021/06/07 04:15:20;;;;;;;5.40;3.45;;;;;;;15.68;91.85;101311.97;1767221;81;20948;-77
2021/06/07 04:17:47;;;;;;;5.67;3.27;;;;;;;15.71;91.87;101314.34;1767018;81;21103;-76
2021/06/07 04:20:16;;;;;;;4.65;3.20;;;;;;;15.75;91.92;101319.72;1767087;81;20895;-72
2021/06/07 04:22:43;;;;;;;3.92;3.15;;;;;;;15.78;91.85;101315.55;1767139;81;21474;-73
2021/06/07 04:25:12;;;;;;;4.83;3.27;;;;;;;15.84;91.88;101314.23;1767224;81;21044;-72
2021/06/07 04:27:40;;;;;;;7.55;3.33;;;;;;;15.89;91.60;101316.00;1767409;81;21073;-77
2021/06/07 04:30:11;;;;;;;7.12;3.50;;;;;;;15.95;91.50;101317.34;1767689;81;21140;-72
2021/06/07 04:32:38;;;;;;;4.45;2.98;;;;;;;16.00;91.18;101318.63;1763815;81;21549;-71
2021/06/07 04:35:08;;;;;;;6.95;3.75;;;;;;;16.06;90.75;101319.46;1763850;81;20899;-76
2021/06/07 04:37:54;;;;;;;4.83;3.20;;;;;;;16.10;90.09;101316.13;1763609;81;20903;-72
2021/06/07 04:40:31;;;;;;;4.05;3.60;;;;;;;16.15;90.50;101321.82;1763775;81;21545;-72
2021/06/07 04:42:59;;;;;;;4.08;3.37;;;;;;;16.20;90.19;101316.60;1763265;81;21537;-71
2021/06/07 04:45:26;;;;;;;5.35;3.02;;;;;;;16.26;89.66;101320.52;1763419;81;21596;-75
2021/06/07 04:47:53;;;;;;;4.50;3.50;;;;;;;16.32;89.72;101321.33;1763175;81;21429;-77
2021/06/07 04:50:22;;;;;;;6.25;3.80;;;;;;;16.37;89.64;101317.86;1763378;81;20986;-73
2021/06/07 04:53:01;;;;;;;5.25;3.55;;;;;;;16.42;89.25;101319.65;1763300;81;20915;-74
2021/06/07 04:55:42;;;;;;;6.05;3.65;;;;;;;16.48;88.85;101327.48;1763405;81;21137;-72
2021/06/07 04:58:15;;;;;;;6.90;3.20;;;;;;;16.53;88.31;101333.21;1762704;81;21136;-70
2021/06/07 05:00:47;;;;;;;6.67;3.02;;;;;;;16.57;88.22;101323.69;1763488;81;20990;-78
2021/06/07 05:03:14;;;;;;;8.25;3.80;;;;;;;16.62;87.73;101324.64;1763331;81;20983;-72
2021/06/07 05:05:42;;;;;;;4.90;3.83;;;;;;;16.67;87.69;101324.61;1763665;81;21013;-78
2021/06/07 05:08:08;;;;;;;5.97;4.22;;;;;;;16.72;87.24;101325.56;1763399;81;21119;-71
2021/06/07 05:10:35;;;;;;;4.67;3.70;;;;;;;16.78;86.45;101325.06;1763224;81;20907;-72
2021/06/07 05:13:02;;;;;;;10.48;3.92;;;;;;;16.83;86.19;101315.86;1763091;81;21564;-71
2021/06/07 05:15:29;;;;;;;4.42;3.37;;;;;;;16.91;86.14;101319.17;1763307;81;21489;-72
2021/06/07 05:17:57;;;;;;;10.78;4.20;;;;;;;16.99;85.39;101323.30;1763290;81;21573;-77
2021/06/07 05:20:26;;;;;;;6.40;3.47;;;;;;;17.08;84.17;101321.22;1763509;81;22134;-78
2021/06/07 05:22:54;;;;;;;9.18;3.37;;;;;;;17.17;84.28;101321.77;1763287;81;20880;-72
2021/06/07 05:25:22;;;;;;;5.20;3.10;;;;;;;17.25;84.26;101329.01;1763330;81;21500;-75
2021/06/07 05:27:51;;;;;;;7.78;3.20;;;;;;;17.31;82.01;101324.56;1763100;81;20967;-71
2021/06/07 05:30:20;;;;;;;5.75;3.52;;;;;;;17.36;82.22;101321.05;1763291;81;21073;-78
2021/06/07 05:32:47;;;;;;;6.60;2.95;;;;;;;17.43;82.45;101323.05;1763014;81;21126;-73
2021/06/07 05:35:15;;;;;;;5.22;3.20;;;;;;;17.53;82.11;101328.83;1763233;81;20927;-77
2021/06/07 05:37:43;;;;;;;5.30;3.30;;;;;;;17.58;81.75;101316.20;1763244;81;21470;-71
2021/06/07 05:40:10;;;;;;;4.95;2.50;;;;;;;17.62;82.39;101307.92;1763020;81;20958;-79
2021/06/07 05:42:38;;;;;;;5.08;3.12;;;;;;;17.69;82.22;101318.73;1763270;81;21058;-72
2021/06/07 05:45:08;;;;;;;8.40;3.10;;;;;;;17.74;80.94;101316.05;1763314;81;21493;-72
2021/06/07 05:47:37;;;;;;;6.85;3.67;;;;;;;17.80;81.16;101317.34;1763074;81;21113;-74
2021/06/07 05:50:06;;;;;;;5.05;3.27;;;;;;;17.81;79.46;101317.67;1763138;81;20915;-76
2021/06/07 05:52:45;;;;;;;4.05;2.87;;;;;;;17.81;79.95;101317.67;1763150;81;21010;-77
2021/06/07 05:55:07;;;;;;;6.00;3.40;;;;;;;17.83;80.05;101322.33;1761974;81;20998;-71
2021/06/07 05:57:34;;;;;;;5.12;2.98;;;;;;;17.88;80.07;101324.06;1749433;81;21107;-75
2021/06/07 06:00:04;;;;;;;4.28;3.35;;;;;;;17.95;80.40;101322.58;1749344;81;21002;-78
2021/06/07 06:02:32;;;;;;;9.48;3.35;;;;;;;18.04;79.62;101327.03;1763180;81;20989;-72
2021/06/07 06:04:59;;;;;;;4.62;3.22;;;;;;;18.08;79.09;101326.29;1762699;81;20951;-76
2021/06/07 06:07:26;;;;;;;5.97;2.98;;;;;;;18.14;78.47;101321.81;1763212;81;20895;-74
2021/06/07 06:09:53;;;;;;;4.33;3.10;;;;;;;18.20;77.90;101325.21;1763203;81;21293;-77
2021/06/07 06:12:20;;;;;;;5.62;3.17;;;;;;;18.22;75.62;101320.67;1763246;81;21520;-77
2021/06/07 06:14:47;;;;;;;4.37;2.92;;;;;;;18.22;75.40;101316.23;1763384;81;20907;-78
2021/06/07 06:17:14;;;;;;;3.30;3.00;;;;;;;18.23;76.02;101320.52;1763028;81;21557;-77
2021/06/07 06:19:42;;;;;;;4.40;2.72;;;;;;;18.25;75.82;101314.64;1763092;81;20958;-72
2021/06/07 06:22:09;;;;;;;3.42;2.50;;;;;;;18.31;76.14;101310.67;1763113;81;21152;-72
2021/06/07 06:24:37;;;;;;;3.55;2.70;;;;;;;18.39;75.42;101311.64;1750680;81;21443;-79
2021/06/07 06:27:09;;;;;;;3.62;2.92;;;;;;;18.49;74.91;101306.41;1732792;82;21065;-75
2021/06/07 06:29:36;;;;;;;3.87;3.17;;;;;;;18.60;75.03;101312.06;1733299;82;21565;-72
2021/06/07 06:32:05;;;;;;;3.90;3.00;;;;;;;18.66;74.14;101309.72;1734138;82;20959;-75
2021/06/07 06:34:32;;;;;;;8.38;3.00;;;;;;;18.70;74.21;101314.22;1736253;82;21854;-78
2021/06/07 06:36:59;;;;;;;5.00;2.80;;;;;;;18.75;74.51;101324.66;1736339;82;21425;-77
2021/06/07 06:39:27;;;;;;;4.20;2.80;;;;;;;18.83;73.95;101320.01;1736560;82;20958;-75
2021/06/07 06:41:54;;;;;;;3.47;2.45;;;;;;;18.86;72.35;101315.78;1736271;82;20990;-73
2021/06/07 06:44:22;;;;;;;5.03;2.80;;;;;;;18.90;72.95;101325.91;1736618;82;20950;-76
2021/06/07 06:46:51;;;;;;;6.92;3.40;;;;;;;18.97;73.16;101326.18;1736357;82;21306;-78
2021/06/07 06:49:18;;;;;;;3.62;2.98;;;;;;;19.01;73.32;101324.94;1736514;82;20974;-71
2021/06/07 06:51:49;;;;;;;4.72;2.87;;;;;;;19.02;72.27;101326.58;1736200;82;20982;-79
2021/06/07 06:54:16;;;;;;;5.35;3.00;;;;;;;19.05;72.63;101334.19;1736259;82;21579;-76
2021/06/07 06:56:50;;;;;;;4.10;3.08;;;;;;;19.09;71.74;101330.80;1736437;82;21018;-76
2021/06/07 06:59:19;;;;;;;7.20;2.80;;;;;;;19.12;71.99;101334.47;1736296;82;21133;-78
2021/06/07 07:01:48;;;;;;;3.98;2.95;;;;;;;19.18;71.94;101334.73;1735847;82;21075;-75
2021/06/07 07:04:15;;;;;;;3.67;2.70;;;;;;;19.22;71.76;101332.66;1735205;82;21149;-75
2021/06/07 07:06:43;;;;;;;4.17;2.60;;;;;;;19.27;70.53;101335.72;1736100;82;21006;-72
2021/06/07 07:09:10;;;;;;;7.10;2.58;;;;;;;19.28;70.71;101330.30;1736451;82;21051;-74
2021/06/07 07:11:40;;;;;;;3.25;2.75;;;;;;;19.34;70.20;101333.68;1736425;82;21150;-76
2021/06/07 07:14:09;;;;;;;2.60;2.40;;;;;;;19.43;70.11;101338.13;1757286;79;21056;-76
2021/06/07 07:16:39;;;;;;;3.42;2.40;;;;;;;19.51;69.87;101336.95;1766736;79;21444;-74
2021/06/07 07:19:07;;;;;;;4.35;2.77;;;;;;;19.61;68.83;101332.13;1765333;79;21466;-72
2021/06/07 07:21:40;;;;;;;3.80;2.52;;;;;;;19.69;68.24;101333.58;1766042;81;20931;-73
2021/06/07 07:24:09;;;;;;;4.05;2.55;;;;;;;19.77;68.23;101333.68;1755255;79;21136;-72
2021/06/07 07:26:38;;;;;;;3.58;2.75;;;;;;;19.85;67.47;101333.30;1736373;82;20974;-74
2021/06/07 07:29:05;;;;;;;9.90;3.22;;;;;;;19.92;67.62;101333.55;1757953;81;20892;-73
2021/06/07 07:31:32;;;;;;;6.05;2.95;;;;;;;19.98;67.85;101338.23;1753134;79;20986;-75
2021/06/07 07:33:59;;;;;;;4.37;2.33;;;;;;;20.07;68.32;101330.77;1763345;81;20990;-73
2021/06/07 07:36:26;;;;;;;3.40;2.65;;;;;;;20.19;68.13;101329.62;1763162;81;21042;-74
2021/06/07 07:38:54;;;;;;;2.67;2.33;;;;;;;20.29;67.40;101332.23;1763308;81;21446;-79
2021/06/07 07:41:21;;;;;;;4.45;2.62;;;;;;;20.29;66.46;101331.75;1763119;81;21607;-69
2021/06/07 07:43:49;;;;;;;5.83;2.65;;;;;;;20.32;67.37;101323.55;1765667;79;21027;-77
2021/06/07 07:46:16;;;;;;;6.17;2.92;;;;;;;20.39;67.57;101327.73;1798471;79;21006;-77
2021/06/07 07:48:44;;;;;;;7.30;2.45;;;;;;;20.43;67.26;101327.76;1735239;82;21169;-73
2021/06/07 07:51:11;;;;;;;3.00;2.72;;;;;;;20.44;67.97;101325.47;1765503;81;21019;-82
2021/06/07 07:53:39;;;;;;;5.10;2.75;;;;;;;20.49;68.83;101335.07;1706324;82;21070;-74
2021/06/07 07:56:09;;;;;;;3.87;2.47;;;;;;;20.56;67.89;101329.06;1765177;81;20907;-77
2021/06/07 07:58:36;;;;;;;2.77;2.40;;;;;;;20.61;68.06;101325.16;1735268;82;20985;-73
2021/06/07 08:01:04;;;;;;;4.67;2.87;;;;;;;20.68;68.65;101324.39;1765175;81;21549;-74
2021/06/07 08:03:31;;;;;;;4.67;2.50;;;;;;;20.82;66.82;101330.95;1717349;82;21039;-74
2021/06/07 08:06:00;;;;;;;2.85;2.55;;;;;;;20.86;66.16;101330.52;1733138;81;20913;-75
2021/06/07 08:08:40;;;;;;;6.47;2.58;;;;;;;20.91;66.57;101321.64;1730245;83;20956;-76
2021/06/07 08:11:13;;;;;;;;;;;;;;;20.98;64.33;101322.70;1729884;83;21615;-77
2021/06/07 08:13:40;;;;;;;4.33;2.50;;;;;;;21.05;63.72;101328.20;1750286;82;21159;-74
2021/06/07 08:16:11;;;;;;;2.92;2.35;;;;;;;21.14;62.15;101332.59;1763910;81;21078;-78
2021/06/07 08:18:41;;;;;;;6.87;2.62;;;;;;;21.21;61.24;101325.72;1727500;83;21524;-74
2021/06/07 08:21:09;;;;;;;5.53;2.45;;;;;;;21.23;62.20;101334.78;1750644;82;21067;-76
2021/06/07 08:23:37;;;;;;;3.52;2.20;;;;;;;21.32;61.80;101334.70;1750655;81;21053;-76
2021/06/07 08:26:04;;;;;;;2.70;2.12;;;;;;;21.45;62.11;101332.97;1764128;81;21204;-77
2021/06/07 08:28:31;;;;;;;4.55;2.40;;;;;;;21.54;60.99;101329.39;1727412;83;21026;-74
2021/06/07 08:31:00;;;;;;;6.33;2.60;;;;;;;21.58;61.24;101332.89;1750189;82;21059;-75
2021/06/07 08:33:29;;;;;;;3.20;2.20;;;;;;;21.67;60.97;101328.97;1760168;81;21098;-74
2021/06/07 08:35:58;;;;;;;2.50;2.30;;;;;;;21.76;60.23;101324.89;1737193;81;21093;-72
2021/06/07 08:38:26;;;;;;;4.15;2.22;;;;;;;21.81;60.36;101333.19;1758948;81;21148;-72
2021/06/07 08:40:54;;;;;;;3.02;2.40;;;;;;;21.90;60.12;101329.63;1754712;81;21077;-70
2021/06/07 08:43:22;;;;;;;2.83;2.45;;;;;;;21.99;60.72;101331.80;1733054;82;21006;-73
2021/06/07 08:45:51;;;;;;;4.58;2.40;;;;;;;22.12;59.71;101333.52;1732515;82;20979;-77
2021/06/07 08:48:18;;;;;;;4.75;2.42;;;;;;;22.19;58.82;101341.64;1732759;82;21072;-72
2021/06/07 08:50:45;;;;;;;2.67;2.40;;;;;;;22.24;58.18;101333.55;1732594;82;21162;-73
2021/06/07 08:53:13;;;;;;;5.70;2.22;;;;;;;22.31;58.46;101343.00;1732316;82;21086;-74
2021/06/07 08:55:40;;;;;;;4.15;2.05;;;;;;;22.35;58.13;101326.66;1732523;82;21009;-74
2021/06/07 08:58:08;;;;;;;2.45;2.25;;;;;;;22.45;58.23;101330.00;1732524;82;20990;-68
2021/06/07 09:00:38;;;;;;;6.58;2.05;;;;;;;22.59;57.11;101334.64;1677653;82;21018;-74
2021/06/07 09:03:08;;;;;;;3.20;2.00;;;;;;;;;;1732863;82;21206;-76
2021/06/07 09:05:37;;;;;;;5.78;2.30;;;;;;;22.71;54.32;101326.44;1732598;82;20974;-72
2021/06/07 09:08:10;;;;;;;4.40;2.60;;;;;;;22.63;54.61;101331.17;1732940;82;20960;-81
2021/06/07 09:10:46;;;;;;;3.47;2.60;;;;;;;22.61;55.57;101324.74;1732881;82;21030;-75
2021/06/07 09:13:15;;;;;;;5.60;2.17;;;;;;;22.73;56.19;101321.80;1732680;82;21153;-74
2021/06/07 09:15:52;;;;;;;3.67;2.33;;;;;;;22.89;55.91;101310.73;1732912;82;21033;-76
2021/06/07 09:18:43;;;;;;;3.30;2.00;;;;;;;23.03;53.73;101318.52;1732477;82;21216;-82
2021/06/07 09:21:18;;;;;;;4.45;2.08;;;;;;;22.99;52.25;101314.05;1733749;82;20974;-74
2021/06/07 09:23:55;;;;;;;3.20;2.02;;;;;;;22.97;52.22;101308.59;1702737;82;21061;-75
2021/06/07 09:26:43;;;;;;;4.42;2.27;;;;;;;23.05;53.94;101315.20;1732755;82;21469;-80
2021/06/07 09:29:23;;;;;;;3.35;2.40;;;;;;;23.17;53.20;101315.18;1732981;82;21152;-78
2021/06/07 09:31:54;;;;;;;2.42;1.95;;;;;;;23.26;52.44;101314.70;1732476;82;47845;-78
2021/06/07 09:34:34;;;;;;;7.00;2.75;;;;;;;23.25;52.43;101306.41;1740120;81;21093;-72
2021/06/07 09:37:10;;;;;;;6.08;2.27;;;;;;;23.34;53.62;101312.86;1753452;81;21015;-79
2021/06/07 09:39:38;;;;;;;6.50;2.30;;;;;;;23.48;52.13;101306.08;1732463;82;21425;-81
2021/06/07 09:42:13;;;;;;;8.40;2.65;;;;;;;23.50;51.42;101309.38;1732557;82;21200;-76
2021/06/07 09:44:54;;;;;;;4.05;2.00;;;;;;;23.57;52.10;101311.19;1732684;82;21088;-78
2021/06/07 09:47:31;;;;;;;3.85;2.25;;;;;;;23.73;50.58;101308.16;1731409;82;21498;-75
2021/06/07 09:50:04;;;;;;;5.78;2.20;;;;;;;23.81;48.62;101312.09;1732507;82;21017;-76
2021/06/07 09:52:45;;;;;;;3.47;2.02;;;;;;;23.87;49.49;101309.58;1732569;82;21038;-76
2021/06/07 09:55:22;;;;;;;4.25;2.12;;;;;;;23.93;47.56;101310.22;1732627;82;21571;-79
2021/06/07 09:58:01;;;;;;;3.90;1.90;;;;;;;23.97;46.76;101306.73;1732114;82;20999;-74
2021/06/07 10:00:52;;;;;;;3.70;1.82;;;;;;;24.23;47.20;101304.65;1729847;82;21751;-78
2021/06/07 10:03:31;;;;;;;6.37;2.00;;;;;;;24.53;46.40;101299.00;1729711;82;20993;-75
2021/06/07 10:06:02;;;;;;;2.92;1.90;;;;;;;24.58;45.67;101303.27;1729232;82;21121;-72
2021/06/07 10:08:44;;;;;;;3.12;2.00;;;;;;;24.56;46.87;101297.33;1732778;82;21141;-74
2021/06/07 10:11:40;;;;;;;3.47;2.00;;;;;;;24.63;45.62;101285.80;1732946;82;21037;-78
2021/06/07 10:14:19;;;;;;;6.10;2.40;;;;;;;24.70;44.26;101289.41;1732889;82;21635;-72
2021/06/07 10:16:56;;;;;;;4.40;2.10;;;;;;;24.80;44.90;101298.95;1741215;81;20970;-75
2021/06/07 10:22:12;;;;;;;3.60;2.30;;;;;;;24.93;43.05;101293.41;1736796;81;21073;-75
2021/06/07 10:24:40;;;;;;;4.25;1.75;;;;;;;25.01;43.07;101296.01;1747181;81;21173;-74
2021/06/07 10:27:08;;;;;;;10.03;1.85;;;;;;;25.10;41.74;101291.44;1733496;82;21022;-75
2021/06/07 10:29:41;;;;;;;4.78;2.75;;;;;;;25.08;42.72;101286.30;1733427;82;21030;-75
2021/06/07 10:32:24;;;;;;;3.77;2.17;;;;;;;25.07;43.57;101287.32;1733668;82;21092;-80
2021/06/07 10:35:02;;;;;;;4.85;2.30;;;;;;;25.05;42.95;101286.66;1731951;82;21056;-72
2021/06/07 10:37:31;;;;;;;6.05;2.00;;;;;;;24.97;42.37;101276.12;1731503;82;21001;-75
2021/06/07 10:40:23;;;;;;;5.30;1.90;;;;;;;24.99;42.07;101276.75;1733335;82;21552;-71
2021/06/07 10:43:00;;;;;;;5.53;1.90;;;;;;;25.05;40.79;101283.17;1733028;82;20907;-75
2021/06/07 10:45:30;;;;;;;3.05;1.87;;;;;;;25.10;40.34;101282.97;1732912;82;21588;-74
2021/06/07 10:48:00;;;;;;;3.55;1.82;;;;;;;25.21;41.04;101279.03;1733079;82;21149;-74
2021/06/07 10:50:31;;;;;;;5.70;1.92;;;;;;;25.33;40.53;101276.27;1733071;82;20863;-78
2021/06/07 10:53:01;;;;;;;3.60;1.82;;;;;;;25.42;40.55;101275.67;1732473;82;21017;-77
2021/06/07 10:55:37;;;;;;;4.28;2.10;;;;;;;25.49;41.30;101273.94;1733360;82;21608;-75
2021/06/07 10:58:08;;;;;;;5.80;2.62;;;;;;;25.61;41.78;101275.98;1732960;82;21643;-75
2021/06/07 11:00:40;;;;;;;5.80;1.85;;;;;;;25.71;41.55;101273.05;1732949;82;21139;-76
2021/06/07 11:03:23;;;;;;;1.95;1.72;;;;;;;25.78;41.16;101270.77;1732999;82;20955;-73
2021/06/07 11:05:57;;;;;;;4.03;1.90;;;;;;;25.83;41.14;101268.07;1733215;82;21066;-76
2021/06/07 11:08:30;;;;;;;6.10;2.00;;;;;;;25.87;42.32;101260.88;1732894;82;20998;-75
2021/06/07 11:11:17;;;;;;;5.22;2.10;;;;;;;25.89;40.62;101258.84;1733084;82;20927;-75
2021/06/07 11:13:51;;;;;;;3.40;2.20;;;;;;;25.95;40.34;101261.26;1733080;82;21157;-73
2021/06/07 11:16:31;;;;;;;8.53;1.90;;;;;;;26.01;40.01;101265.33;1733083;82;21069;-76
2021/06/07 11:19:08;;;;;;;5.53;1.87;;;;;;;26.08;39.79;101250.77;1701973;82;21062;-77
2021/06/07 11:21:57;;;;;;;5.53;2.05;;;;;;;26.25;41.11;101259.72;1733368;82;20955;-72
2021/06/07 11:24:37;;;;;;;2.92;1.70;;;;;;;26.36;40.54;101254.91;1733279;82;21077;-73
2021/06/07 11:27:07;;;;;;;3.20;1.80;;;;;;;26.53;38.87;101237.66;1736213;81;21594;-78
2021/06/07 11:29:36;;;;;;;4.80;3.10;;;;;;;26.54;39.43;101248.62;1739971;81;20915;-74
2021/06/07 11:32:10;;;;;;;4.58;2.45;;;;;;;26.60;40.46;101242.03;1763185;81;21518;-75
2021/06/07 11:34:45;;;;;;;3.67;1.92;;;;;;;26.92;40.50;101239.86;1763266;81;21007;-79
2021/06/07 11:37:36;;;;;;;3.77;1.57;;;;;;;27.12;37.12;101246.96;1763238;81;21592;-76
2021/06/07 11:40:07;;;;;;;2.85;1.75;;;;;;;26.90;37.84;101237.37;1757619;81;21557;-76
2021/06/07 11:42:56;;;;;;;5.08;2.80;;;;;;;26.83;38.60;101229.04;1761397;81;20880;-72